Time;durP1;ratioP1;P1;durP2;ratioP2;P2;SDS_P1;SDS_P2;PMS_P1;PMS_P2;Temp;Humidity;BMP_temperature;BMP_pressure;BME280_temperature;BME280_humidity;BME280_pressure;Samples;Min_cycle;Max_cycle;Signal;HPM_P1;HPM_P2
2021/06/13 00:01:30;;;;;;;8.38;7.03;;;21.40;68.60;;;;;;6307310;22;19999;-86
2021/06/13 00:03:56;;;;;;;8.60;6.50;;;21.30;69.00;;;;;;6279463;22;20014;-86
2021/06/13 00:06:22;;;;;;;7.53;6.72;;;21.30;69.10;;;;;;6307441;22;20004;-86
2021/06/13 00:08:47;;;;;;;7.65;6.28;;;21.30;69.10;;;;;;6307707;22;20337;-86
2021/06/13 00:11:13;;;;;;;8.77;5.50;;;21.30;69.20;;;;;;6307095;22;19999;-86
2021/06/13 00:13:40;;;;;;;6.60;5.78;;;21.30;69.20;;;;;;6280251;22;20064;-86
2021/06/13 00:16:06;;;;;;;6.07;5.45;;;21.30;69.10;;;;;;6308219;22;20430;-86
2021/06/13 00:18:34;;;;;;;6.05;5.32;;;21.30;69.00;;;;;;6280430;22;20437;-86
2021/06/13 00:21:00;;;;;;;7.18;5.38;;;21.30;69.20;;;;;;6280228;22;20030;-86
2021/06/13 00:23:26;;;;;;;7.30;5.63;;;21.30;69.10;;;;;;6280439;22;20014;-86
2021/06/13 00:25:52;;;;;;;5.78;5.28;;;21.20;69.30;;;;;;6280061;22;20006;-86
2021/06/13 00:28:18;;;;;;;5.72;5.13;;;21.20;69.50;;;;;;6280452;22;20003;-86
2021/06/13 00:30:44;;;;;;;6.45;4.82;;;21.10;69.40;;;;;;6307864;22;20000;-86
2021/06/13 00:33:10;;;;;;;7.78;5.88;;;21.20;69.30;;;;;;6280280;22;20086;-86
2021/06/13 00:35:36;;;;;;;7.68;6.60;;;21.20;69.20;;;;;;6307093;22;20464;-86
2021/06/13 00:38:03;;;;;;;9.98;6.50;;;21.20;69.90;;;;;;6307361;22;19999;-85
2021/06/13 00:40:29;;;;;;;9.05;6.40;;;21.10;70.10;;;;;;6307259;22;20002;-86
2021/06/13 00:42:55;;;;;;;9.35;6.13;;;21.10;70.30;;;;;;6280114;22;20098;-86
2021/06/13 00:45:22;;;;;;;8.35;6.10;;;21.10;70.60;;;;;;6279643;22;20022;-85
2021/06/13 00:47:49;;;;;;;6.40;5.60;;;21.00;70.60;;;;;;6307319;22;20048;-86
2021/06/13 00:50:28;;;;;;;9.70;5.78;;;21.00;70.50;;;;;;6279257;22;20015;-85
2021/06/13 00:52:54;;;;;;;8.55;6.35;;;21.00;70.50;;;;;;6278857;22;20006;-85
2021/06/13 00:55:20;;;;;;;7.25;5.80;;;21.00;70.30;;;;;;6279581;22;19999;-85
2021/06/13 00:57:46;;;;;;;6.35;5.75;;;21.00;70.30;;;;;;6305940;22;20118;-86
2021/06/13 01:00:13;;;;;;;7.28;5.28;;;21.10;70.10;;;;;;6306389;22;20000;-85
2021/06/13 01:02:40;;;;;;;7.97;5.47;;;21.10;69.70;;;;;;6279174;22;20141;-86
2021/06/13 01:05:07;;;;;;;7.43;5.75;;;21.10;69.60;;;;;;6279647;22;20014;-86
2021/06/13 01:07:54;;;;;;;5.95;4.95;;;21.10;69.70;;;;;;6279758;22;20345;-86
2021/06/13 01:10:26;;;;;;;5.50;4.68;;;20.90;69.20;;;;;;6279530;22;20068;-86
2021/06/13 01:13:12;;;;;;;6.53;4.80;;;20.80;69.40;;;;;;6279724;22;20056;-86
2021/06/13 01:15:43;;;;;;;8.23;4.40;;;20.90;69.40;;;;;;6306311;22;20023;-86
2021/06/13 01:18:35;;;;;;;5.07;4.38;;;20.90;69.10;;;;;;6279246;22;20000;-85
2021/06/13 01:21:24;;;;;;;7.40;4.55;;;21.00;68.50;;;;;;6263037;22;20034;-86
2021/06/13 01:24:05;;;;;;;4.50;4.10;;;21.00;68.30;;;;;;6280163;22;20057;-85
2021/06/13 01:27:12;;;;;;;6.43;5.28;;;21.00;68.30;;;;;;6279159;22;20003;-85
2021/06/13 01:29:42;;;;;;;7.43;4.72;;;21.00;68.50;;;;;;6307182;22;20007;-86
2021/06/13 01:32:23;;;;;;;8.05;5.50;;;21.00;68.10;;;;;;6279377;22;20332;-85
2021/06/13 01:34:55;;;;;;;9.65;5.30;;;21.00;68.40;;;;;;6307621;22;20003;-86
2021/06/13 01:37:24;;;;;;;9.25;5.38;;;20.90;68.50;;;;;;6279326;22;20003;-86
2021/06/13 01:39:53;;;;;;;5.40;4.85;;;20.90;68.40;;;;;;6279253;22;20811;-85
2021/06/13 01:42:20;;;;;;;9.45;5.93;;;20.80;68.60;;;;;;6306999;22;20003;-85
2021/06/13 01:44:50;;;;;;;5.25;4.60;;;20.80;69.00;;;;;;6307236;22;20456;-86
2021/06/13 01:47:17;;;;;;;7.35;5.75;;;20.70;69.10;;;;;;6279897;22;19999;-85
2021/06/13 01:49:43;;;;;;;8.23;5.20;;;20.70;68.80;;;;;;6307153;22;20010;-86
2021/06/13 01:52:11;;;;;;;8.77;5.75;;;20.70;69.00;;;;;;6307142;22;20034;-86
2021/06/13 01:54:38;;;;;;;6.53;4.00;;;20.70;69.40;;;;;;6279626;22;20077;-86
2021/06/13 01:57:05;;;;;;;8.48;5.32;;;20.70;68.90;;;;;;6306539;22;20048;-86
2021/06/13 01:59:32;;;;;;;5.35;4.85;;;20.80;68.70;;;;;;6306660;22;20063;-86
2021/06/13 02:01:59;;;;;;;8.52;6.00;;;20.80;68.80;;;;;;6279311;22;20000;-86
2021/06/13 02:04:27;;;;;;;6.50;5.07;;;20.70;69.00;;;;;;6306990;22;19999;-86
2021/06/13 02:06:58;;;;;;;11.38;6.50;;;20.70;69.00;;;;;;6306683;22;20341;-86
2021/06/13 02:09:28;;;;;;;9.43;5.43;;;20.60;69.20;;;;;;6279974;22;20007;-87
2021/06/13 02:11:59;;;;;;;6.13;5.22;;;20.60;69.20;;;;;;6308792;22;20360;-86
2021/06/13 02:14:25;;;;;;;11.43;5.43;;;20.60;69.20;;;;;;6309143;22;20329;-85
2021/06/13 02:16:52;;;;;;;7.40;5.72;;;20.60;69.00;;;;;;6308443;22;20022;-85
2021/06/13 02:19:21;;;;;;;9.48;5.40;;;20.60;69.10;;;;;;6281550;22;20003;-85
2021/06/13 02:21:54;;;;;;;6.55;5.00;;;20.50;68.60;;;;;;6308360;22;20003;-85
2021/06/13 02:24:20;;;;;;;8.75;5.90;;;20.50;68.60;;;;;;6281721;22;20453;-83
2021/06/13 02:26:46;;;;;;;6.80;6.10;;;20.40;68.90;;;;;;6308367;22;20003;-83
2021/06/13 02:29:14;;;;;;;7.63;6.07;;;20.40;68.90;;;;;;6281230;22;19999;-83
2021/06/13 02:31:42;;;;;;;9.07;6.40;;;20.30;69.00;;;;;;6307409;22;19992;-83
2021/06/13 02:34:09;;;;;;;6.28;5.68;;;20.30;69.20;;;;;;6308481;22;20077;-83
2021/06/13 02:36:37;;;;;;;6.47;5.88;;;20.30;69.30;;;;;;6280258;22;19999;-83
2021/06/13 02:39:06;;;;;;;6.10;5.50;;;20.40;68.90;;;;;;6280536;22;20004;-83
2021/06/13 02:41:33;;;;;;;10.27;5.85;;;20.30;68.90;;;;;;6307879;22;20006;-83
2021/06/13 02:43:58;;;;;;;9.85;6.18;;;20.30;68.70;;;;;;6308493;22;20433;-83
2021/06/13 02:46:24;;;;;;;11.45;6.47;;;20.30;68.80;;;;;;6280830;22;20018;-83
2021/06/13 02:48:50;;;;;;;7.28;6.35;;;20.30;69.00;;;;;;6280379;22;20011;-83
2021/06/13 02:51:19;;;;;;;5.93;5.15;;;20.20;68.40;;;;;;6307991;22;19996;-82
2021/06/13 02:53:50;;;;;;;7.05;5.45;;;20.10;68.30;;;;;;6308433;22;20495;-83
2021/06/13 02:56:34;;;;;;;8.63;6.97;;;20.20;67.70;;;;;;6280931;22;20010;-83
2021/06/13 02:59:20;;;;;;;8.15;7.30;;;20.00;67.00;;;;;;6280139;22;20007;-83
2021/06/13 03:01:48;;;;;;;9.48;6.95;;;19.80;67.60;;;;;;6254398;22;20010;-83
2021/06/13 03:04:18;;;;;;;8.43;7.03;;;19.80;68.30;;;;;;6280664;22;20337;-83
2021/06/13 03:06:52;;;;;;;7.70;6.90;;;19.80;68.40;;;;;;6280486;22;20056;-83
2021/06/13 03:09:18;;;;;;;7.80;7.00;;;19.80;68.30;;;;;;6280312;22;20003;-83
2021/06/13 03:11:45;;;;;;;9.70;7.78;;;19.80;68.40;;;;;;6280155;22;20082;-83
2021/06/13 03:14:13;;;;;;;8.23;6.72;;;19.90;68.30;;;;;;6280711;22;20007;-83
2021/06/13 03:16:39;;;;;;;11.23;7.18;;;19.80;68.20;;;;;;6307841;22;19999;-83
2021/06/13 03:19:07;;;;;;;9.88;7.20;;;19.70;68.80;;;;;;6280322;22;20307;-83
2021/06/13 03:21:33;;;;;;;10.43;7.43;;;19.70;68.30;;;;;;6307459;22;20003;-83
2021/06/13 03:24:00;;;;;;;8.23;7.20;;;19.80;68.10;;;;;;6280556;22;20003;-83
2021/06/13 03:26:28;;;;;;;13.73;7.60;;;19.80;68.20;;;;;;6280427;22;20027;-83
2021/06/13 03:28:56;;;;;;;9.63;8.45;;;19.80;68.70;;;;;;6307357;22;20010;-82
2021/06/13 03:31:22;;;;;;;8.55;7.43;;;19.80;69.00;;;;;;6307300;22;19999;-83
2021/06/13 03:33:49;;;;;;;10.82;7.55;;;19.70;69.10;;;;;;6280014;22;20086;-83
2021/06/13 03:36:17;;;;;;;8.38;7.20;;;19.70;69.00;;;;;;6307326;22;19999;-82
2021/06/13 03:38:46;;;;;;;8.57;7.68;;;19.60;68.70;;;;;;6279998;22;20026;-82
2021/06/13 03:41:16;;;;;;;8.70;7.63;;;19.60;68.70;;;;;;6279647;22;19999;-83
2021/06/13 03:43:42;;;;;;;9.23;8.23;;;19.60;68.90;;;;;;6279936;22;20060;-82
2021/06/13 03:46:09;;;;;;;8.50;7.15;;;19.70;69.50;;;;;;6279867;22;20018;-83
2021/06/13 03:48:36;;;;;;;9.80;8.02;;;19.70;69.00;;;;;;6280033;22;20011;-83
2021/06/13 03:51:03;;;;;;;10.43;7.88;;;19.70;69.20;;;;;;6279858;22;20004;-83
2021/06/13 03:53:29;;;;;;;10.88;8.00;;;19.70;69.30;;;;;;6307279;22;20052;-83
2021/06/13 03:56:02;;;;;;;12.35;8.10;;;19.60;69.60;;;;;;6307544;22;19999;-83
2021/06/13 03:58:29;;;;;;;9.38;8.35;;;19.60;69.70;;;;;;6280193;22;20004;-83
2021/06/13 04:00:57;;;;;;;11.63;8.85;;;19.60;69.80;;;;;;6279603;22;20003;-83
2021/06/13 04:03:26;;;;;;;10.68;9.30;;;19.60;70.00;;;;;;6279422;22;19999;-83
2021/06/13 04:05:52;;;;;;;10.88;8.77;;;19.60;70.10;;;;;;6279698;22;20003;-83
2021/06/13 04:08:20;;;;;;;12.48;9.55;;;19.60;70.20;;;;;;6279927;22;20070;-83
2021/06/13 04:10:50;;;;;;;14.27;9.13;;;19.50;70.20;;;;;;6279186;22;20003;-83
2021/06/13 04:13:16;;;;;;;9.88;8.88;;;19.50;70.40;;;;;;6279772;22;20031;-83
2021/06/13 04:15:43;;;;;;;10.65;8.70;;;19.60;70.40;;;;;;6280228;22;19999;-83
2021/06/13 04:18:10;;;;;;;14.25;9.45;;;19.60;70.20;;;;;;6307102;22;20437;-83
2021/06/13 04:20:37;;;;;;;9.77;8.55;;;19.60;70.10;;;;;;6279048;22;19999;-83
2021/06/13 04:23:05;;;;;;;9.82;7.90;;;19.60;69.80;;;;;;6279715;22;20000;-83
2021/06/13 04:25:31;;;;;;;9.55;7.80;;;19.60;70.40;;;;;;6279789;22;20014;-83
2021/06/13 04:27:59;;;;;;;9.70;8.05;;;19.70;69.50;;;;;;6280049;22;20014;-83
2021/06/13 04:30:25;;;;;;;11.70;9.15;;;19.70;69.30;;;;;;6279145;22;20393;-83
2021/06/13 04:32:51;;;;;;;11.02;8.45;;;19.60;69.50;;;;;;6279844;22;20341;-83
2021/06/13 04:35:17;;;;;;;10.75;8.25;;;19.60;69.90;;;;;;6279381;22;19996;-83
2021/06/13 04:37:43;;;;;;;9.48;7.85;;;19.60;70.00;;;;;;6279729;22;20007;-83
2021/06/13 04:40:09;;;;;;;11.32;8.15;;;19.60;69.80;;;;;;6279291;22;20093;-83
2021/06/13 04:42:36;;;;;;;12.30;9.30;;;19.70;69.60;;;;;;6306826;22;19999;-83
2021/06/13 04:45:08;;;;;;;13.70;8.10;;;19.70;69.30;;;;;;6305943;22;20028;-83
2021/06/13 04:47:34;;;;;;;11.70;8.27;;;19.60;69.60;;;;;;6306416;22;20025;-82
2021/06/13 04:50:01;;;;;;;11.15;8.95;;;19.60;69.20;;;;;;6278810;22;20273;-83
2021/06/13 04:52:28;;;;;;;9.57;8.57;;;19.60;69.40;;;;;;6307130;22;20023;-83
2021/06/13 04:55:26;;;;;;;11.00;8.00;;;19.50;69.50;;;;;;6279126;22;20018;-82
2021/06/13 04:58:08;;;;;;;11.88;9.45;;;19.60;69.20;;;;;;6279464;22;19999;-83
2021/06/13 05:00:34;;;;;;;9.27;7.47;;;19.60;69.30;;;;;;6279668;22;20003;-82
2021/06/13 05:03:00;;;;;;;9.95;8.27;;;19.60;69.30;;;;;;6279959;22;20495;-82
2021/06/13 05:05:26;;;;;;;10.43;9.00;;;19.70;69.50;;;;;;6307010;22;20063;-83
2021/06/13 05:07:51;;;;;;;8.23;7.43;;;19.70;69.50;;;;;;6279819;22;20446;-83
2021/06/13 05:10:18;;;;;;;13.90;8.20;;;19.70;68.90;;;;;;6306820;22;20315;-83
2021/06/13 05:12:52;;;;;;;7.93;7.15;;;19.70;68.40;;;;;;6306788;22;20532;-83
2021/06/13 05:15:20;;;;;;;10.43;7.70;;;19.70;68.40;;;;;;6306916;22;19999;-82
2021/06/13 05:17:46;;;;;;;8.63;7.65;;;19.70;68.00;;;;;;6307047;22;20485;-83
2021/06/13 05:20:13;;;;;;;8.15;6.80;;;19.70;67.80;;;;;;6279631;22;20007;-83
2021/06/13 05:22:57;;;;;;;7.47;6.32;;;19.80;67.40;;;;;;6279448;22;20477;-82
2021/06/13 05:25:23;;;;;;;8.00;7.15;;;19.90;66.90;;;;;;6306742;22;20047;-83
2021/06/13 05:27:49;;;;;;;9.70;7.78;;;19.90;66.60;;;;;;6279446;22;20004;-82
2021/06/13 05:30:15;;;;;;;9.02;8.02;;;19.90;66.50;;;;;;6278802;22;20053;-82
2021/06/13 05:32:40;;;;;;;8.45;7.50;;;19.90;66.60;;;;;;6279208;22;20082;-83
2021/06/13 05:35:07;;;;;;;8.65;7.75;;;19.70;66.60;;;;;;6253745;22;20060;-82
2021/06/13 05:37:33;;;;;;;15.15;8.45;;;19.70;67.10;;;;;;6279444;22;20380;-82
2021/06/13 05:39:58;;;;;;;8.95;8.05;;;19.70;66.90;;;;;;6279713;22;20003;-83
2021/06/13 05:42:24;;;;;;;10.57;8.07;;;19.60;67.30;;;;;;6279219;22;20116;-82
2021/06/13 05:44:50;;;;;;;9.30;8.23;;;19.70;67.30;;;;;;6280207;22;20004;-82
2021/06/13 05:47:15;;;;;;;10.82;9.18;;;19.70;67.20;;;;;;6281746;22;20406;-82
2021/06/13 05:49:41;;;;;;;10.93;9.05;;;19.70;67.80;;;;;;6308585;22;20026;-83
2021/06/13 05:52:07;;;;;;;11.02;8.38;;;19.70;67.40;;;;;;6280946;22;20087;-83
2021/06/13 05:54:38;;;;;;;12.43;9.18;;;19.70;67.50;;;;;;6281392;22;20060;-83
2021/06/13 05:57:05;;;;;;;12.73;9.05;;;19.70;67.80;;;;;;6308793;22;19996;-83
2021/06/13 05:59:30;;;;;;;11.43;8.95;;;19.70;67.70;;;;;;6281364;22;20006;-82
2021/06/13 06:01:56;;;;;;;13.13;8.88;;;19.70;67.60;;;;;;6281921;22;20007;-82
2021/06/13 06:04:22;;;;;;;10.80;8.57;;;19.60;67.50;;;;;;6309153;22;20003;-82
2021/06/13 06:06:47;;;;;;;12.68;8.82;;;19.50;67.90;;;;;;6309066;22;20066;-82
2021/06/13 06:09:13;;;;;;;11.27;9.13;;;19.60;68.20;;;;;;6280528;22;20103;-82
2021/06/13 06:11:42;;;;;;;15.20;9.70;;;19.70;68.20;;;;;;6280737;22;20006;-82
2021/06/13 06:14:11;;;;;;;10.02;8.93;;;19.80;68.40;;;;;;6281219;22;20049;-82
2021/06/13 06:16:37;;;;;;;9.60;7.97;;;19.80;68.60;;;;;;6308220;22;19999;-83
2021/06/13 06:19:03;;;;;;;9.40;8.48;;;19.90;68.60;;;;;;6281192;22;20007;-82
2021/06/13 06:21:29;;;;;;;12.02;9.35;;;20.00;68.30;;;;;;6281293;22;20030;-82
2021/06/13 06:23:54;;;;;;;11.75;9.30;;;20.10;68.20;;;;;;6280740;22;20033;-82
2021/06/13 06:26:21;;;;;;;11.98;9.27;;;20.10;68.10;;;;;;6280898;22;20025;-82
2021/06/13 06:28:46;;;;;;;11.77;9.38;;;20.20;68.00;;;;;;6280208;22;20437;-82
2021/06/13 06:31:13;;;;;;;9.68;8.23;;;20.20;67.80;;;;;;6307459;22;20034;-83
2021/06/13 06:33:39;;;;;;;12.20;10.15;;;20.20;67.70;;;;;;6280237;22;19999;-82
2021/06/13 06:36:05;;;;;;;11.57;9.98;;;20.30;67.50;;;;;;6308114;22;20372;-82
2021/06/13 06:38:32;;;;;;;12.00;9.75;;;20.20;67.60;;;;;;6307895;22;20628;-82
2021/06/13 06:40:58;;;;;;;13.48;9.27;;;20.20;67.70;;;;;;6307698;22;20003;-82
2021/06/13 06:43:24;;;;;;;10.55;9.20;;;20.30;67.60;;;;;;6307689;22;19995;-82
2021/06/13 06:45:50;;;;;;;9.60;8.63;;;20.30;67.80;;;;;;6275533;22;20011;-82
2021/06/13 06:48:16;;;;;;;10.88;9.43;;;20.30;67.90;;;;;;6275509;22;20046;-82
2021/06/13 06:50:42;;;;;;;12.18;8.68;;;20.30;67.90;;;;;;6276689;22;20312;-83
2021/06/13 06:53:08;;;;;;;8.75;7.95;;;20.40;68.00;;;;;;6277253;22;20019;-83
2021/06/13 06:55:34;;;;;;;10.15;9.07;;;20.50;67.90;;;;;;6274528;22;19996;-82
2021/06/13 06:58:00;;;;;;;15.25;9.63;;;20.50;67.40;;;;;;6277451;22;20423;-82
2021/06/13 07:00:26;;;;;;;10.52;8.88;;;20.50;67.10;;;;;;6276963;22;20061;-83
2021/06/13 07:02:52;;;;;;;10.52;9.27;;;20.40;67.00;;;;;;6275053;22;20014;-82
2021/06/13 07:05:18;;;;;;;12.15;8.98;;;20.50;67.40;;;;;;6275004;22;20003;-83
2021/06/13 07:07:44;;;;;;;13.18;8.88;;;20.60;67.00;;;;;;6275236;22;20011;-83
2021/06/13 07:10:11;;;;;;;11.23;8.60;;;20.70;66.40;;;;;;6275206;22;20345;-82
2021/06/13 07:12:37;;;;;;;11.95;8.18;;;20.80;66.00;;;;;;6275224;22;20013;-83
2021/06/13 07:15:04;;;;;;;12.43;8.27;;;20.80;65.80;;;;;;6277047;22;20494;-82
2021/06/13 07:17:30;;;;;;;49.70;18.42;;;20.90;66.00;;;;;;6275476;22;19996;-82
2021/06/13 07:19:55;;;;;;;13.43;8.50;;;20.90;66.30;;;;;;6274905;22;20008;-82
2021/06/13 07:22:23;;;;;;;43.17;17.77;;;20.90;66.00;;;;;;6276590;22;20004;-82
2021/06/13 07:24:49;;;;;;;121.78;37.53;;;21.10;65.70;;;;;;6275047;22;20007;-83
2021/06/13 07:27:15;;;;;;;29.33;13.20;;;21.20;65.60;;;;;;6276917;22;20030;-83
2021/06/13 07:29:41;;;;;;;24.60;13.25;;;21.20;65.50;;;;;;6275527;22;20008;-83
2021/06/13 07:32:07;;;;;;;63.10;26.25;;;21.30;65.20;;;;;;6276568;22;20075;-83
2021/06/13 07:34:32;;;;;;;24.30;12.00;;;21.20;65.10;;;;;;6276394;22;20087;-83
2021/06/13 07:37:02;;;;;;;18.60;11.40;;;21.00;65.00;;;;;;6276812;22;19996;-83
2021/06/13 07:39:28;;;;;;;21.67;11.60;;;21.10;65.20;;;;;;6275376;22;20015;-83
2021/06/13 07:41:54;;;;;;;14.77;9.13;;;21.20;65.30;;;;;;6275404;22;20334;-83
2021/06/13 07:44:20;;;;;;;32.75;13.45;;;21.40;65.30;;;;;;6275294;22;20008;-83
2021/06/13 07:46:46;;;;;;;13.05;8.55;;;21.70;65.10;;;;;;6305124;22;20090;-83
2021/06/13 07:49:12;;;;;;;17.27;9.77;;;21.90;64.00;;;;;;6280300;22;20451;-83
2021/06/13 07:51:38;;;;;;;12.85;8.38;;;22.00;64.00;;;;;;6279955;22;20088;-83
2021/06/13 07:54:04;;;;;;;16.15;9.80;;;22.20;63.60;;;;;;6307416;22;19995;-83
2021/06/13 07:56:30;;;;;;;12.75;9.18;;;22.40;63.40;;;;;;6280607;22;20082;-83
2021/06/13 07:58:56;;;;;;;17.88;9.60;;;22.50;62.60;;;;;;6280301;22;20034;-83
2021/06/13 08:01:21;;;;;;;15.18;10.02;;;22.50;62.50;;;;;;6307195;22;20003;-83
2021/06/13 08:03:47;;;;;;;17.65;10.35;;;22.50;62.70;;;;;;6279556;22;20460;-83
2021/06/13 08:06:13;;;;;;;19.80;10.80;;;22.60;62.40;;;;;;6307285;22;19999;-84
2021/06/13 08:08:38;;;;;;;15.25;11.13;;;22.60;62.00;;;;;;6279685;22;20061;-83
2021/06/13 08:11:07;;;;;;;12.07;8.90;;;22.60;61.80;;;;;;6279537;22;20010;-83
2021/06/13 08:13:32;;;;;;;13.13;8.98;;;22.60;61.50;;;;;;6279688;22;20720;-83
2021/06/13 08:15:58;;;;;;;12.63;9.02;;;22.70;61.30;;;;;;6279675;22;19999;-84
2021/06/13 08:18:24;;;;;;;21.00;12.57;;;22.90;61.30;;;;;;6306874;22;19999;-84
2021/06/13 08:20:50;;;;;;;12.80;9.38;;;23.00;60.70;;;;;;6279827;22;20018;-84
2021/06/13 08:23:16;;;;;;;11.77;8.85;;;23.10;60.30;;;;;;6307432;22;20380;-84
2021/06/13 08:25:42;;;;;;;17.00;9.55;;;23.30;59.70;;;;;;6306996;22;19995;-83
2021/06/13 08:28:07;;;;;;;13.88;7.60;;;23.40;59.40;;;;;;6307107;22;19992;-83
2021/06/13 08:30:33;;;;;;;9.48;7.75;;;23.60;59.20;;;;;;6279177;22;20030;-83
2021/06/13 08:32:59;;;;;;;11.60;8.10;;;23.60;58.60;;;;;;6306522;22;19999;-84
2021/06/13 08:35:25;;;;;;;11.23;8.05;;;23.60;58.20;;;;;;6306664;22;20483;-84
2021/06/13 08:37:51;;;;;;;9.63;7.63;;;23.50;58.20;;;;;;6306768;22;20319;-84
2021/06/13 08:40:17;;;;;;;10.48;7.15;;;23.50;58.20;;;;;;6306128;22;20006;-84
2021/06/13 08:42:43;;;;;;;9.10;7.30;;;23.50;57.90;;;;;;6279477;22;20018;-84
2021/06/13 08:45:12;;;;;;;9.18;7.18;;;23.60;57.20;;;;;;6278580;22;20015;-84
2021/06/13 08:47:39;;;;;;;12.80;8.15;;;23.60;56.90;;;;;;6279428;22;20003;-84
2021/06/13 08:50:07;;;;;;;11.93;8.05;;;23.60;57.00;;;;;;6279438;22;20007;-84
2021/06/13 08:52:33;;;;;;;9.70;7.55;;;23.60;56.70;;;;;;6279416;22;20078;-84
2021/06/13 08:54:59;;;;;;;11.60;7.72;;;23.50;56.60;;;;;;6279346;22;19999;-84
2021/06/13 08:57:26;;;;;;;12.20;8.27;;;23.40;56.60;;;;;;6279038;22;20078;-84
2021/06/13 08:59:52;;;;;;;9.27;7.50;;;23.40;56.80;;;;;;6306646;22;20007;-84
2021/06/13 09:02:18;;;;;;;11.23;6.93;;;23.50;56.40;;;;;;6279035;22;20005;-84
2021/06/13 09:04:44;;;;;;;9.93;7.40;;;23.70;56.00;;;;;;6279453;22;20078;-84
2021/06/13 09:07:20;;;;;;;10.75;6.88;;;23.80;55.50;;;;;;6279357;22;20010;-84
2021/06/13 09:09:46;;;;;;;12.82;6.90;;;23.80;55.70;;;;;;6306615;22;19999;-84
2021/06/13 09:12:12;;;;;;;8.20;6.18;;;23.80;55.40;;;;;;6279247;22;20102;-84
2021/06/13 09:14:42;;;;;;;9.43;6.10;;;23.90;55.20;;;;;;6279453;22;20003;-84
2021/06/13 09:17:21;;;;;;;8.80;6.63;;;24.10;55.10;;;;;;6279494;22;20053;-84
2021/06/13 09:20:05;;;;;;;9.80;6.65;;;24.40;54.40;;;;;;6306633;22;20058;-84
2021/06/13 09:22:32;;;;;;;10.23;6.05;;;24.50;53.90;;;;;;6279318;22;20060;-84
2021/06/13 09:25:27;;;;;;;9.45;7.10;;;24.50;54.30;;;;;;6278957;22;20384;-84
2021/06/13 09:28:08;;;;;;;7.82;6.25;;;24.60;54.10;;;;;;6273909;22;20018;-84
2021/06/13 09:30:38;;;;;;;5.85;5.25;;;24.70;53.80;;;;;;6278745;22;20010;-84
2021/06/13 09:33:09;;;;;;;6.68;5.68;;;24.80;53.70;;;;;;6279422;22;20004;-84
2021/06/13 09:35:35;;;;;;;10.82;6.13;;;25.00;53.20;;;;;;6306681;22;19999;-84
2021/06/13 09:38:09;;;;;;;7.90;5.50;;;25.00;52.70;;;;;;6306695;22;20087;-84
2021/06/13 09:40:35;;;;;;;7.35;5.60;;;25.00;51.40;;;;;;6279360;22;20011;-84
2021/06/13 09:43:21;;;;;;;5.85;4.72;;;25.10;52.00;;;;;;6306532;22;20003;-84
2021/06/13 09:46:00;;;;;;;6.68;5.05;;;25.20;51.40;;;;;;6273258;22;20019;-84
2021/06/13 09:48:27;;;;;;;7.05;4.55;;;25.30;51.00;;;;;;6275660;22;20000;-84
2021/06/13 09:51:04;;;;;;;7.40;5.40;;;25.40;51.10;;;;;;6275453;22;20434;-84
2021/06/13 09:53:31;;;;;;;8.40;6.15;;;25.50;50.10;;;;;;6273973;22;20003;-85
2021/06/13 09:56:13;;;;;;;11.25;6.07;;;25.50;50.10;;;;;;6275402;22;20000;-84
2021/06/13 09:58:48;;;;;;;5.57;4.67;;;25.60;49.30;;;;;;6276120;22;19996;-84
2021/06/13 10:01:14;;;;;;;6.25;4.90;;;25.60;49.30;;;;;;6273567;22;20000;-84
2021/06/13 10:03:40;;;;;;;9.60;5.47;;;25.70;49.40;;;;;;6274130;22;20000;-85
2021/06/13 10:06:09;;;;;;;6.57;4.68;;;25.80;48.50;;;;;;6273829;22;20004;-84
2021/06/13 10:08:38;;;;;;;7.57;4.60;;;25.80;48.50;;;;;;6274218;22;20010;-84
2021/06/13 10:11:05;;;;;;;7.68;4.55;;;25.80;49.10;;;;;;6274179;22;20056;-85
2021/06/13 10:13:55;;;;;;;6.68;4.20;;;25.90;48.90;;;;;;6276202;22;20003;-84
2021/06/13 10:16:33;;;;;;;7.47;4.60;;;26.00;48.30;;;;;;6273950;22;20501;-85
2021/06/13 10:19:03;;;;;;;5.80;4.38;;;26.00;48.30;;;;;;6274379;22;20053;-85
2021/06/13 10:21:35;;;;;;;9.50;5.00;;;26.00;48.20;;;;;;6275955;22;20007;-84
2021/06/13 10:24:03;;;;;;;;;;;26.10;48.50;;;;;;6276471;22;20008;-85
2021/06/13 10:26:29;;;;;;;5.43;4.00;;;26.10;48.60;;;;;;6274178;22;19900;-84
2021/06/13 10:28:55;;;;;;;6.07;4.18;;;26.10;48.50;;;;;;6274340;22;20010;-84
2021/06/13 10:31:21;;;;;;;8.05;3.88;;;26.20;48.30;;;;;;6275311;22;20441;-84
2021/06/13 10:33:47;;;;;;;7.43;3.70;;;26.30;47.50;;;;;;6275391;22;20086;-85
2021/06/13 10:36:13;;;;;;;4.28;3.35;;;26.30;47.10;;;;;;6275484;22;20031;-84
2021/06/13 10:38:40;;;;;;;5.75;4.05;;;26.40;46.80;;;;;;6276106;22;20004;-85
2021/06/13 10:41:06;;;;;;;7.13;4.90;;;26.60;46.30;;;;;;6275618;22;20315;-85
2021/06/13 10:43:32;;;;;;;4.63;3.83;;;26.60;46.30;;;;;;6276907;22;20084;-84
2021/06/13 10:46:13;;;;;;;4.03;3.58;;;26.60;46.20;;;;;;6294935;22;20004;-84
2021/06/13 10:48:46;;;;;;;3.97;3.58;;;26.70;45.40;;;;;;6307491;22;19999;-85
2021/06/13 10:51:38;;;;;;;5.25;4.00;;;26.50;45.50;;;;;;6307819;22;20010;-85
2021/06/13 10:54:28;;;;;;;6.75;3.85;;;26.60;45.30;;;;;;6279685;22;20010;-84
2021/06/13 10:57:04;;;;;;;4.93;4.00;;;26.70;45.40;;;;;;6280839;22;20029;-84
2021/06/13 10:59:35;;;;;;;5.30;3.92;;;26.80;45.00;;;;;;6308152;22;19999;-84
2021/06/13 11:02:10;;;;;;;6.72;3.53;;;26.80;44.60;;;;;;6279676;22;20007;-84
2021/06/13 11:04:54;;;;;;;5.43;3.97;;;26.80;44.30;;;;;;6280113;22;20007;-85
2021/06/13 11:07:29;;;;;;;3.67;3.00;;;26.80;43.40;;;;;;6307711;22;20667;-84
2021/06/13 11:10:13;;;;;;;4.43;3.47;;;26.80;42.60;;;;;;6280296;22;20064;-84
2021/06/13 11:13:02;;;;;;;4.65;3.25;;;26.70;42.80;;;;;;6280820;22;20000;-84
2021/06/13 11:15:30;;;;;;;5.93;3.47;;;26.80;43.70;;;;;;6280407;22;20003;-85
2021/06/13 11:18:05;;;;;;;5.43;3.58;;;26.80;43.60;;;;;;6280555;22;20003;-84
2021/06/13 11:20:35;;;;;;;4.65;3.05;;;27.00;43.50;;;;;;6280452;22;20429;-84
2021/06/13 11:23:04;;;;;;;3.45;3.15;;;27.10;42.90;;;;;;6307623;22;20318;-85
2021/06/13 11:25:31;;;;;;;3.20;2.90;;;27.00;42.40;;;;;;6280233;22;20105;-85
2021/06/13 11:28:16;;;;;;;6.95;3.20;;;27.00;42.30;;;;;;6280255;22;20422;-84
2021/06/13 11:30:49;;;;;;;3.35;2.70;;;27.20;42.00;;;;;;6280393;22;20010;-84
2021/06/13 11:33:37;;;;;;;6.28;2.90;;;27.20;41.80;;;;;;6280786;22;19999;-85
2021/06/13 11:36:26;;;;;;;6.63;3.00;;;27.20;40.40;;;;;;6280549;22;20003;-84
2021/06/13 11:39:16;;;;;;;3.17;2.67;;;27.20;41.10;;;;;;6280128;22;20057;-84
2021/06/13 11:41:44;;;;;;;6.28;3.25;;;27.20;41.10;;;;;;6306575;22;20014;-84
2021/06/13 11:44:19;;;;;;;3.30;2.67;;;27.20;40.20;;;;;;6280002;22;20010;-84
2021/06/13 11:46:50;;;;;;;3.20;2.45;;;27.20;40.70;;;;;;6279766;22;20019;-84
2021/06/13 11:49:18;;;;;;;3.67;2.63;;;27.20;40.20;;;;;;6280165;22;19999;-84
2021/06/13 11:51:54;;;;;;;3.17;2.78;;;27.30;41.00;;;;;;6279798;22;20006;-84
2021/06/13 11:54:44;;;;;;;4.70;2.83;;;27.30;40.70;;;;;;6278953;22;20031;-84
2021/06/13 11:57:13;;;;;;;3.60;2.80;;;27.40;41.00;;;;;;6278667;22;20003;-84
2021/06/13 11:59:40;;;;;;;5.43;2.42;;;27.40;41.10;;;;;;6279565;22;20062;-84
2021/06/13 12:02:06;;;;;;;3.33;2.60;;;27.40;40.60;;;;;;6279490;22;20004;-84
2021/06/13 12:04:33;;;;;;;4.30;2.70;;;27.50;40.70;;;;;;6279681;22;20094;-84
2021/06/13 12:07:02;;;;;;;3.75;2.80;;;27.60;40.40;;;;;;6279777;22;20011;-84
2021/06/13 12:09:31;;;;;;;4.47;2.90;;;27.60;39.80;;;;;;6306875;22;20003;-84
2021/06/13 12:11:59;;;;;;;2.75;2.10;;;27.50;39.40;;;;;;6279827;22;20004;-84
2021/06/13 12:14:38;;;;;;;3.88;2.33;;;27.50;38.80;;;;;;6306434;22;19991;-84
2021/06/13 12:17:05;;;;;;;2.78;2.30;;;27.60;38.90;;;;;;6279311;22;20109;-85
2021/06/13 12:19:52;;;;;;;6.25;2.20;;;27.70;39.10;;;;;;6278666;22;20035;-84
2021/06/13 12:28:07;;;;;;;3.10;2.25;;;27.80;39.00;;;;;;6307268;22;20060;-84
2021/06/13 12:30:36;;;;;;;4.05;2.65;;;27.70;38.80;;;;;;6279773;22;20003;-84
2021/06/13 12:33:06;;;;;;;2.58;2.20;;;27.80;38.80;;;;;;6279854;22;20010;-84
2021/06/13 12:35:39;;;;;;;2.58;2.38;;;27.80;38.10;;;;;;6280093;22;20003;-81
2021/06/13 12:38:07;;;;;;;3.08;2.22;;;27.70;38.50;;;;;;6307377;22;20027;-81
2021/06/13 12:40:38;;;;;;;3.63;2.72;;;27.80;38.50;;;;;;6307346;22;20048;-81
2021/06/13 12:43:05;;;;;;;4.25;2.20;;;27.70;38.10;;;;;;6280335;22;20042;-81
2021/06/13 12:45:31;;;;;;;3.00;2.42;;;27.70;37.80;;;;;;6279444;22;20076;-83
2021/06/13 12:48:00;;;;;;;5.85;2.10;;;27.70;37.80;;;;;;6306541;22;19999;-82
2021/06/13 12:50:37;;;;;;;4.00;2.40;;;27.70;37.80;;;;;;6278924;22;20007;-81
2021/06/13 12:53:05;;;;;;;3.13;2.10;;;27.80;37.40;;;;;;6278391;22;20310;-82
2021/06/13 12:55:39;;;;;;;3.70;1.70;;;27.70;37.30;;;;;;6279018;22;20010;-82
2021/06/13 12:58:13;;;;;;;2.47;1.98;;;27.70;37.90;;;;;;6278992;22;20444;-82
2021/06/13 13:00:39;;;;;;;4.03;2.40;;;27.70;37.50;;;;;;6307094;22;20418;-82